createdAt,value
2023-01-28T00:00:29.665Z,40.05
2023-01-28T00:01:06.691Z,35.80
2023-01-28T00:01:38.955Z,35.05
2023-01-28T00:02:14.034Z,36.15
2023-01-28T00:02:49.666Z,37.90
2023-01-28T00:03:21.853Z,33.22
2023-01-28T00:03:53.864Z,41.78
2023-01-28T00:04:25.910Z,35.97
2023-01-28T00:04:57.802Z,35.40
2023-01-28T00:05:30.098Z,38.05
2023-01-28T00:06:07.164Z,37.95
2023-01-28T00:06:39.249Z,38.15
2023-01-28T00:07:11.068Z,45.00
2023-01-28T00:07:43.248Z,45.92
2023-01-28T00:08:15.133Z,50.67
2023-01-28T00:08:47.244Z,59.15
2023-01-28T00:09:19.600Z,62.50
2023-01-28T00:09:52.034Z,62.95
2023-01-28T00:10:23.956Z,53.85
2023-01-28T00:10:59.632Z,47.38
2023-01-28T00:11:31.940Z,44.72
2023-01-28T00:12:03.980Z,48.10
2023-01-28T00:12:35.881Z,52.83
2023-01-28T00:13:07.995Z,53.42
2023-01-28T00:13:40.346Z,47.38
2023-01-28T00:14:12.609Z,50.50
2023-01-28T00:14:46.315Z,55.95
2023-01-28T00:15:18.272Z,57.42
2023-01-28T00:15:56.507Z,60.53
2023-01-28T00:16:28.795Z,58.47
2023-01-28T00:17:01.347Z,58.53
2023-01-28T00:17:33.530Z,57.15
2023-01-28T00:18:05.529Z,52.80
2023-01-28T00:18:37.817Z,55.45
2023-01-28T00:19:09.917Z,59.17
2023-01-28T00:19:41.876Z,71.20
2023-01-28T00:20:13.915Z,43.97
2023-01-28T00:20:56.884Z,48.95
2023-01-28T00:21:28.846Z,50.30
2023-01-28T00:22:01.022Z,75.12
2023-01-28T00:22:33.005Z,78.62
2023-01-28T00:23:04.940Z,80.68
2023-01-28T00:23:38.599Z,71.18
2023-01-28T00:24:10.644Z,71.68
2023-01-28T00:24:42.580Z,67.65
2023-01-28T00:25:15.151Z,79.78
2023-01-28T00:25:47.191Z,76.90
2023-01-28T00:26:19.224Z,73.80
2023-01-28T00:26:52.178Z,73.32
2023-01-28T00:27:24.403Z,71.70
2023-01-28T00:27:56.381Z,70.30
2023-01-28T00:28:28.683Z,83.53
2023-01-28T00:29:00.598Z,77.32
2023-01-28T00:29:32.493Z,58.17
2023-01-28T00:30:04.858Z,55.08
2023-01-28T00:30:37.151Z,55.00
2023-01-28T00:31:10.953Z,48.95
2023-01-28T00:31:43.059Z,41.13
2023-01-28T00:32:15.289Z,49.55
2023-01-28T00:32:47.512Z,54.05
2023-01-28T00:33:19.808Z,46.55
2023-01-28T00:33:52.477Z,45.75
2023-01-28T00:34:24.317Z,44.00
2023-01-28T00:34:56.194Z,41.67
2023-01-28T00:35:28.064Z,42.90
2023-01-28T00:36:01.488Z,41.95
2023-01-28T00:36:33.904Z,36.38
2023-01-28T00:37:06.463Z,35.95
2023-01-28T00:37:38.363Z,37.22
2023-01-28T00:38:10.692Z,35.38
2023-01-28T00:38:43.662Z,40.97
2023-01-28T00:39:18.429Z,39.85
2023-01-28T00:39:50.362Z,37.13
2023-01-28T00:40:22.271Z,34.13
2023-01-28T00:40:54.293Z,37.85
2023-01-28T00:41:28.621Z,33.50
2023-01-28T00:42:03.337Z,39.00
2023-01-28T00:42:35.414Z,35.38
2023-01-28T00:43:07.379Z,31.80
2023-01-28T00:43:40.864Z,40.38
2023-01-28T00:44:13.945Z,38.95
2023-01-28T00:44:45.850Z,44.20
2023-01-28T00:45:17.713Z,36.97
2023-01-28T00:45:50.455Z,36.58
2023-01-28T00:46:23.200Z,33.67
2023-01-28T00:46:55.136Z,37.45
2023-01-28T00:47:27.144Z,35.60
2023-01-28T00:47:59.034Z,36.63
2023-01-28T00:48:31.220Z,38.25
2023-01-28T00:49:03.438Z,33.88
2023-01-28T00:49:35.297Z,36.35
2023-01-28T00:50:07.524Z,37.35
2023-01-28T00:50:40.374Z,30.90
2023-01-28T00:51:14.064Z,35.10
2023-01-28T00:51:46.032Z,32.58
2023-01-28T00:52:20.829Z,32.20
2023-01-28T00:52:52.718Z,34.88
2023-01-28T00:53:24.726Z,33.03
2023-01-28T00:53:56.634Z,33.92
2023-01-28T00:54:28.862Z,36.05
2023-01-28T00:55:01.075Z,32.88
2023-01-28T00:55:33.013Z,30.42
2023-01-28T00:56:06.929Z,35.53
2023-01-28T00:56:38.929Z,33.78
2023-01-28T00:57:10.795Z,29.58
2023-01-28T00:57:42.731Z,35.47
2023-01-28T00:58:14.607Z,31.67
2023-01-28T00:58:46.951Z,33.60
2023-01-28T00:59:29.450Z,31.90
2023-01-28T01:00:01.682Z,30.60
2023-01-28T01:00:33.679Z,31.48
2023-01-28T01:01:20.159Z,32.88
2023-01-28T01:01:52.285Z,37.15
2023-01-28T01:02:27.072Z,30.80
2023-01-28T01:03:00.065Z,34.53
2023-01-28T01:03:31.983Z,30.85
2023-01-28T01:04:04.066Z,35.33
2023-01-28T01:04:36.096Z,34.08
2023-01-28T01:05:08.737Z,34.50
2023-01-28T01:05:40.616Z,31.65
2023-01-28T01:06:15.460Z,31.48
2023-01-28T01:06:47.363Z,30.77
2023-01-28T01:07:19.212Z,27.98
2023-01-28T01:07:53.252Z,26.85
2023-01-28T01:08:34.891Z,32.60
2023-01-28T01:09:09.019Z,31.20
2023-01-28T01:09:40.883Z,31.58
2023-01-28T01:10:16.923Z,28.92
2023-01-28T01:10:48.804Z,30.98
2023-01-28T01:11:20.711Z,27.50
2023-01-28T01:11:52.653Z,31.98
2023-01-28T01:12:24.518Z,32.53
2023-01-28T01:12:58.117Z,31.62
2023-01-28T01:13:31.497Z,33.05
2023-01-28T01:14:05.277Z,36.72
2023-01-28T01:14:37.318Z,31.12
2023-01-28T01:15:10.538Z,33.38
2023-01-28T01:15:43.514Z,30.62
2023-01-28T01:16:16.726Z,30.25
2023-01-28T01:16:48.627Z,31.98
2023-01-28T01:17:21.788Z,32.70
2023-01-28T01:17:53.725Z,35.10
2023-01-28T01:18:25.586Z,31.30
2023-01-28T01:18:59.307Z,27.83
2023-01-28T01:19:31.559Z,34.25
2023-01-28T01:20:05.795Z,32.40
2023-01-28T01:20:45.574Z,28.92
2023-01-28T01:21:19.996Z,32.45
2023-01-28T01:21:51.891Z,27.73
2023-01-28T01:22:23.820Z,29.20
2023-01-28T01:22:56.702Z,32.72
2023-01-28T01:23:30.160Z,26.25
2023-01-28T01:24:02.108Z,28.98
2023-01-28T01:24:34.269Z,33.17
2023-01-28T01:25:07.083Z,28.10
2023-01-28T01:25:40.200Z,31.23
2023-01-28T01:26:13.531Z,32.15
2023-01-28T01:26:45.729Z,32.72
2023-01-28T01:27:17.646Z,30.90
2023-01-28T01:27:50.128Z,26.33
2023-01-28T01:28:23.483Z,29.63
2023-01-28T01:28:58.447Z,29.77
2023-01-28T01:29:30.388Z,32.08
2023-01-28T01:30:02.325Z,29.40
2023-01-28T01:30:34.229Z,29.60
2023-01-28T01:31:12.765Z,29.63
2023-01-28T01:31:45.243Z,29.37
2023-01-28T01:32:18.621Z,29.60
2023-01-28T01:32:50.560Z,30.00
2023-01-28T01:33:22.446Z,34.97
2023-01-28T01:33:54.904Z,30.48
2023-01-28T01:34:26.793Z,28.30
2023-01-28T01:34:58.743Z,29.17
2023-01-28T01:35:30.687Z,28.52
2023-01-28T01:36:02.627Z,33.88
2023-01-28T01:36:34.857Z,31.48
2023-01-28T01:37:08.530Z,33.83
2023-01-28T01:37:44.802Z,29.12
2023-01-28T01:38:17.080Z,31.10
2023-01-28T01:38:53.957Z,31.55
2023-01-28T01:39:25.898Z,27.90
2023-01-28T01:39:57.821Z,24.40
2023-01-28T01:40:30.301Z,31.58
2023-01-28T01:41:05.038Z,28.42
2023-01-28T01:41:37.100Z,28.02
2023-01-28T01:42:12.987Z,28.77
2023-01-28T01:42:45.184Z,32.15
2023-01-28T01:43:22.101Z,25.42
2023-01-28T01:43:58.767Z,32.55
2023-01-28T01:44:52.410Z,31.25
2023-01-28T01:45:24.353Z,29.42
2023-01-28T01:46:01.455Z,26.55
2023-01-28T01:46:42.046Z,30.35
2023-01-28T01:47:15.849Z,27.80
2023-01-28T01:47:50.728Z,25.12
2023-01-28T01:48:32.813Z,28.48
2023-01-28T01:49:28.578Z,31.77
2023-01-28T01:50:12.639Z,32.42
2023-01-28T01:50:58.818Z,26.30
2023-01-28T01:51:34.656Z,26.27
2023-01-28T01:52:11.639Z,27.50
2023-01-28T01:52:44.762Z,25.35
2023-01-28T01:53:20.934Z,26.80
2023-01-28T01:53:55.955Z,25.65
2023-01-28T01:54:30.905Z,30.48
2023-01-28T01:55:08.689Z,27.00
2023-01-28T01:55:44.676Z,26.27
2023-01-28T01:56:21.455Z,25.90
2023-01-28T01:56:53.585Z,25.42
2023-01-28T01:57:33.868Z,25.90
2023-01-28T01:58:11.195Z,30.45
2023-01-28T01:58:45.816Z,27.52
2023-01-28T01:59:25.092Z,28.87
2023-01-28T02:00:05.936Z,33.85
2023-01-28T02:00:46.329Z,28.60
2023-01-28T02:01:23.008Z,32.30
2023-01-28T02:01:55.636Z,34.15
2023-01-28T02:02:27.779Z,32.97
2023-01-28T02:03:01.797Z,34.28
2023-01-28T02:04:01.074Z,34.13
2023-01-28T02:04:38.746Z,35.28
2023-01-28T02:05:15.675Z,33.63
2023-01-28T02:05:50.356Z,28.75
2023-01-28T02:06:23.085Z,30.17
2023-01-28T02:06:55.670Z,32.08
2023-01-28T02:07:27.975Z,29.20
2023-01-28T02:08:20.688Z,31.55
2023-01-28T02:08:56.518Z,29.85
2023-01-28T02:09:30.759Z,33.50
2023-01-28T02:10:04.043Z,31.55
2023-01-28T02:10:36.321Z,31.05
2023-01-28T02:11:10.175Z,34.78
2023-01-28T02:11:42.484Z,33.65
2023-01-28T02:12:20.140Z,34.25
2023-01-28T02:12:57.970Z,34.08
2023-01-28T02:13:41.332Z,30.90
2023-01-28T02:14:22.430Z,32.38
2023-01-28T02:15:12.563Z,30.37
2023-01-28T02:15:47.813Z,31.05
2023-01-28T02:16:19.990Z,30.73
2023-01-28T02:16:51.950Z,30.42
2023-01-28T02:17:24.904Z,33.65
2023-01-28T02:17:57.496Z,30.20
2023-01-28T02:18:29.469Z,31.35
2023-01-28T02:19:02.152Z,30.90
2023-01-28T02:19:50.711Z,28.98
2023-01-28T02:20:34.762Z,28.98
2023-01-28T02:21:43.877Z,28.87
2023-01-28T02:22:33.799Z,28.95
2023-01-28T02:23:57.019Z,28.95
2023-01-28T02:24:40.909Z,30.62
2023-01-28T02:25:20.688Z,34.45
2023-01-28T02:25:55.249Z,27.87
2023-01-28T02:26:42.239Z,28.05
2023-01-28T02:27:51.886Z,29.45
2023-01-28T02:28:53.203Z,32.53
2023-01-28T02:29:54.204Z,31.20
2023-01-28T02:30:33.670Z,30.10
2023-01-28T02:31:16.365Z,29.73
2023-01-28T02:31:51.045Z,28.08
2023-01-28T02:32:29.774Z,30.02
2023-01-28T02:33:27.364Z,29.23
2023-01-28T02:34:18.756Z,32.30
2023-01-28T02:34:54.351Z,29.90
2023-01-28T02:35:43.554Z,28.25
2023-01-28T02:36:37.845Z,31.08
2023-01-28T02:37:18.314Z,34.33
2023-01-28T02:37:55.440Z,35.55
2023-01-28T02:38:33.183Z,27.08
2023-01-28T02:39:13.387Z,32.90
2023-01-28T02:39:58.132Z,28.58
2023-01-28T02:40:54.355Z,30.33
2023-01-28T02:41:33.251Z,30.90
2023-01-28T02:42:11.073Z,33.03
2023-01-28T02:42:43.208Z,32.28
2023-01-28T02:43:15.258Z,32.78
2023-01-28T02:43:47.716Z,31.95
2023-01-28T02:44:19.617Z,32.08
2023-01-28T02:44:51.570Z,32.10
2023-01-28T02:45:47.657Z,37.13
2023-01-28T02:46:44.343Z,30.95
2023-01-28T02:47:35.145Z,32.40
2023-01-28T02:48:07.420Z,32.33
2023-01-28T02:48:39.340Z,30.30
2023-01-28T02:49:43.231Z,34.47
2023-01-28T02:50:20.691Z,30.88
2023-01-28T02:51:10.416Z,29.67
2023-01-28T02:51:57.528Z,35.30
2023-01-28T02:53:11.949Z,33.00
2023-01-28T02:54:03.191Z,37.05
2023-01-28T02:54:44.054Z,34.88
2023-01-28T02:55:56.497Z,34.83
2023-01-28T02:56:40.909Z,31.17
2023-01-28T02:57:43.219Z,31.92
2023-01-28T02:58:15.175Z,31.67
2023-01-28T02:59:31.005Z,29.70
2023-01-28T03:00:14.966Z,39.63
2023-01-28T03:01:08.535Z,35.28
2023-01-28T03:01:46.921Z,37.65
2023-01-28T03:02:47.119Z,33.35
2023-01-28T03:03:27.947Z,34.20
2023-01-28T03:04:47.983Z,33.55
2023-01-28T03:05:34.409Z,37.65
2023-01-28T03:06:12.048Z,32.25
2023-01-28T03:06:53.687Z,35.10
2023-01-28T03:07:30.232Z,34.97
2023-01-28T03:08:26.314Z,39.28
2023-01-28T03:09:21.193Z,34.15
2023-01-28T03:09:58.877Z,32.75
2023-01-28T03:10:31.019Z,31.15
2023-01-28T03:11:21.687Z,33.63
2023-01-28T03:12:24.502Z,36.17
2023-01-28T03:13:17.313Z,33.20
2023-01-28T03:14:08.151Z,34.08
2023-01-28T03:14:59.213Z,35.88
2023-01-28T03:16:06.054Z,31.77
2023-01-28T03:16:57.074Z,35.97
2023-01-28T03:17:52.155Z,39.80
2023-01-28T03:18:51.983Z,36.70
2023-01-28T03:19:43.645Z,35.67
2023-01-28T03:20:34.675Z,33.47
2023-01-28T03:21:31.263Z,33.42
2023-01-28T03:22:23.574Z,30.52
2023-01-28T03:23:18.580Z,30.90
2023-01-28T03:24:50.605Z,35.70
2023-01-28T03:25:46.051Z,37.70
2023-01-28T03:26:41.116Z,35.15
2023-01-28T03:27:43.970Z,36.85
2023-01-28T03:28:38.742Z,40.47
2023-01-28T03:29:32.858Z,36.80
2023-01-28T03:30:30.634Z,34.45
2023-01-28T03:31:30.428Z,38.67
2023-01-28T03:32:21.582Z,36.88
2023-01-28T03:34:04.212Z,32.22
2023-01-28T03:34:55.245Z,35.67
2023-01-28T03:35:50.298Z,32.45
2023-01-28T03:36:41.854Z,35.15
2023-01-28T03:37:15.470Z,35.05
2023-01-28T03:37:48.078Z,33.17
2023-01-28T03:38:23.063Z,34.55
2023-01-28T03:38:56.575Z,33.85
2023-01-28T03:39:30.654Z,36.05
2023-01-28T03:40:06.176Z,38.63
2023-01-28T03:41:02.970Z,38.85
2023-01-28T03:41:35.162Z,41.13
2023-01-28T03:42:13.048Z,37.78
2023-01-28T03:42:47.896Z,35.90
2023-01-28T03:43:24.784Z,35.80
2023-01-28T03:43:58.393Z,36.65
2023-01-28T03:44:49.219Z,35.55
2023-01-28T03:45:22.217Z,33.30
2023-01-28T03:45:55.551Z,32.13
2023-01-28T03:46:27.722Z,32.42
2023-01-28T03:47:00.353Z,32.33
2023-01-28T03:47:33.036Z,33.17
2023-01-28T03:48:06.079Z,34.17
2023-01-28T03:48:38.091Z,34.53
2023-01-28T03:49:11.803Z,31.12
2023-01-28T03:49:51.964Z,35.00
2023-01-28T03:50:24.281Z,35.42
2023-01-28T03:50:57.411Z,28.77
2023-01-28T03:51:29.715Z,31.15
2023-01-28T03:52:02.424Z,31.50
2023-01-28T03:52:34.395Z,33.30
2023-01-28T03:53:16.307Z,30.45
2023-01-28T03:53:49.259Z,35.60
2023-01-28T03:54:21.170Z,34.28
2023-01-28T03:54:53.191Z,34.53
2023-01-28T03:55:25.897Z,31.12
2023-01-28T03:55:57.986Z,33.17
2023-01-28T03:56:32.551Z,36.75
2023-01-28T03:57:06.183Z,33.00
2023-01-28T03:57:38.069Z,34.80
2023-01-28T03:58:10.560Z,35.80
2023-01-28T03:58:56.625Z,33.25
2023-01-28T03:59:28.785Z,36.92
2023-01-28T04:00:00.952Z,34.72
2023-01-28T04:00:34.885Z,33.25
2023-01-28T04:01:07.515Z,31.70
2023-01-28T04:01:39.523Z,35.42
2023-01-28T04:02:12.582Z,37.55
2023-01-28T04:02:44.931Z,32.15
2023-01-28T04:03:20.399Z,34.08
2023-01-28T04:03:53.252Z,34.03
2023-01-28T04:04:26.758Z,34.13
2023-01-28T04:04:59.733Z,34.60
2023-01-28T04:05:32.262Z,32.17
2023-01-28T04:06:07.425Z,32.35
2023-01-28T04:06:41.648Z,35.10
2023-01-28T04:07:15.498Z,33.78
2023-01-28T04:07:51.828Z,32.55
2023-01-28T04:08:24.134Z,34.83
2023-01-28T04:08:59.525Z,36.55
2023-01-28T04:09:32.008Z,28.85
2023-01-28T04:10:05.658Z,34.95
2023-01-28T04:10:40.975Z,31.52
2023-01-28T04:11:16.181Z,39.78
2023-01-28T04:11:49.471Z,31.87
2023-01-28T04:12:23.685Z,35.28
2023-01-28T04:12:56.839Z,35.92
2023-01-28T04:13:29.834Z,35.63
2023-01-28T04:14:01.818Z,33.05
2023-01-28T04:14:36.472Z,32.63
2023-01-28T04:15:15.818Z,31.62
2023-01-28T04:15:49.254Z,37.00
2023-01-28T04:16:21.438Z,37.58
2023-01-28T04:16:55.048Z,33.90
2023-01-28T04:17:27.893Z,33.47
2023-01-28T04:18:01.740Z,30.73
2023-01-28T04:18:34.276Z,32.85
2023-01-28T04:19:09.121Z,34.20
2023-01-28T04:19:41.886Z,34.88
2023-01-28T04:20:15.115Z,34.70
2023-01-28T04:20:49.633Z,35.92
2023-01-28T04:21:22.865Z,28.87
2023-01-28T04:21:56.724Z,31.37
2023-01-28T04:22:29.174Z,32.33
2023-01-28T04:23:01.263Z,36.15
2023-01-28T04:23:34.932Z,34.83
2023-01-28T04:24:08.112Z,36.05
2023-01-28T04:24:40.246Z,33.08
2023-01-28T04:25:12.638Z,32.03
2023-01-28T04:25:44.778Z,29.95
2023-01-28T04:26:16.766Z,32.42
2023-01-28T04:26:49.032Z,31.12
2023-01-28T04:27:21.632Z,36.50
2023-01-28T04:27:54.414Z,30.30
2023-01-28T04:28:26.811Z,35.25
2023-01-28T04:28:58.962Z,34.38
2023-01-28T04:29:31.750Z,30.25
2023-01-28T04:30:04.384Z,32.72
2023-01-28T04:30:36.711Z,32.22
2023-01-28T04:31:09.343Z,31.48
2023-01-28T04:31:41.504Z,33.53
2023-01-28T04:32:14.054Z,31.15
2023-01-28T04:32:47.976Z,36.40
2023-01-28T04:33:21.539Z,29.40
2023-01-28T04:33:55.030Z,33.25
2023-01-28T04:34:27.479Z,33.20
2023-01-28T04:35:00.007Z,31.58
2023-01-28T04:35:32.075Z,29.95
2023-01-28T04:36:04.794Z,35.95
2023-01-28T04:36:36.919Z,34.78
2023-01-28T04:37:09.375Z,30.58
2023-01-28T04:37:46.432Z,29.02
2023-01-28T04:38:18.814Z,30.48
2023-01-28T04:38:51.147Z,33.33
2023-01-28T04:39:23.629Z,33.20
2023-01-28T04:39:57.898Z,33.67
2023-01-28T04:40:32.546Z,32.38
2023-01-28T04:41:05.156Z,31.77
2023-01-28T04:41:37.986Z,33.30
2023-01-28T04:42:10.489Z,31.27
2023-01-28T04:42:56.894Z,32.45
2023-01-28T04:43:29.429Z,33.63
2023-01-28T04:44:01.633Z,29.08
2023-01-28T04:44:34.274Z,34.13
2023-01-28T04:45:07.080Z,35.95
2023-01-28T04:45:39.084Z,30.55
2023-01-28T04:46:11.630Z,33.53
2023-01-28T04:46:44.623Z,30.98
2023-01-28T04:47:16.759Z,32.95
2023-01-28T04:47:49.107Z,35.05
2023-01-28T04:48:21.140Z,34.22
2023-01-28T04:48:55.262Z,33.78
2023-01-28T04:49:27.800Z,34.50
2023-01-28T04:50:01.799Z,36.08
2023-01-28T04:50:34.744Z,31.98
2023-01-28T04:51:09.694Z,36.20
2023-01-28T04:51:42.605Z,34.40
2023-01-28T04:52:15.003Z,34.30
2023-01-28T04:52:47.274Z,33.65
2023-01-28T04:53:19.368Z,34.15
2023-01-28T04:53:51.473Z,30.65
2023-01-28T04:54:24.086Z,31.15
2023-01-28T04:54:57.447Z,29.02
2023-01-28T04:55:29.528Z,32.92
2023-01-28T04:56:01.830Z,36.63
2023-01-28T04:56:35.160Z,36.65
2023-01-28T04:57:08.064Z,32.40
2023-01-28T04:57:40.337Z,33.45
2023-01-28T04:58:12.541Z,34.35
2023-01-28T04:58:48.502Z,32.60
2023-01-28T04:59:20.843Z,34.58
2023-01-28T04:59:53.255Z,32.20
2023-01-28T05:00:25.612Z,32.85
2023-01-28T05:01:00.333Z,32.03
2023-01-28T05:01:32.319Z,35.00
2023-01-28T05:02:04.456Z,33.17
2023-01-28T05:02:36.800Z,33.53
2023-01-28T05:03:08.704Z,31.35
2023-01-28T05:03:40.699Z,34.75
2023-01-28T05:04:13.635Z,32.08
2023-01-28T05:04:45.577Z,33.08
2023-01-28T05:05:20.473Z,34.35
2023-01-28T05:05:53.391Z,30.00
2023-01-28T05:06:25.738Z,36.50
2023-01-28T05:06:58.589Z,33.72
2023-01-28T05:07:31.058Z,33.00
2023-01-28T05:08:03.044Z,30.80
2023-01-28T05:08:35.868Z,32.70
2023-01-28T05:09:08.063Z,30.90
2023-01-28T05:09:40.501Z,30.98
2023-01-28T05:10:12.844Z,33.97
2023-01-28T05:10:45.255Z,32.78
2023-01-28T05:11:17.168Z,32.53
2023-01-28T05:11:49.912Z,32.15
2023-01-28T05:12:22.131Z,33.15
2023-01-28T05:12:54.454Z,35.08
2023-01-28T05:13:26.936Z,34.45
2023-01-28T05:13:58.901Z,34.90
2023-01-28T05:14:32.130Z,29.50
2023-01-28T05:15:05.137Z,38.65
2023-01-28T05:15:37.182Z,30.05
2023-01-28T05:16:09.402Z,33.67
2023-01-28T05:16:41.879Z,29.75
2023-01-28T05:17:13.844Z,32.95
2023-01-28T05:17:46.352Z,30.17
2023-01-28T05:18:18.868Z,34.55
2023-01-28T05:18:51.539Z,33.95
2023-01-28T05:19:23.819Z,32.45
2023-01-28T05:19:55.816Z,34.25
2023-01-28T05:20:28.006Z,33.85
2023-01-28T05:21:01.076Z,32.42
2023-01-28T05:21:34.875Z,33.35
2023-01-28T05:22:07.065Z,31.58
2023-01-28T05:22:41.284Z,38.00
2023-01-28T05:23:13.477Z,30.70
2023-01-28T05:23:45.541Z,34.75
2023-01-28T05:24:17.500Z,36.88
2023-01-28T05:24:49.562Z,28.67
2023-01-28T05:25:21.490Z,28.98
2023-01-28T05:25:53.470Z,32.65
2023-01-28T05:26:25.537Z,34.88
2023-01-28T05:26:57.968Z,31.45
2023-01-28T05:27:31.097Z,31.92
2023-01-28T05:28:03.927Z,28.33
2023-01-28T05:28:36.236Z,34.00
2023-01-28T05:29:08.309Z,38.80
2023-01-28T05:29:40.331Z,34.58
2023-01-28T05:30:13.302Z,36.38
2023-01-28T05:30:45.507Z,32.10
2023-01-28T05:31:17.478Z,34.83
2023-01-28T05:31:49.438Z,30.42
2023-01-28T05:32:21.813Z,31.08
2023-01-28T05:32:57.617Z,35.33
2023-01-28T05:33:29.890Z,36.13
2023-01-28T05:34:02.203Z,32.03
2023-01-28T05:34:34.103Z,31.02
2023-01-28T05:35:06.630Z,38.17
2023-01-28T05:35:38.979Z,36.45
2023-01-28T05:36:11.208Z,30.98
2023-01-28T05:36:43.377Z,39.58
2023-01-28T05:37:17.217Z,33.80
2023-01-28T05:37:49.905Z,35.95
2023-01-28T05:38:22.254Z,32.97
2023-01-28T05:38:54.239Z,32.10
2023-01-28T05:39:26.189Z,34.33
2023-01-28T05:39:58.150Z,35.15
2023-01-28T05:40:30.172Z,35.55
2023-01-28T05:41:02.453Z,31.77
2023-01-28T05:41:34.907Z,37.55
2023-01-28T05:42:07.180Z,33.50
2023-01-28T05:42:39.595Z,36.90
2023-01-28T05:43:15.269Z,34.42
2023-01-28T05:43:48.358Z,31.05
2023-01-28T05:44:20.607Z,33.67
2023-01-28T05:44:52.818Z,33.45
2023-01-28T05:45:26.697Z,39.38
2023-01-28T05:46:00.983Z,35.88
2023-01-28T05:46:33.596Z,35.75
2023-01-28T05:47:05.974Z,37.92
2023-01-28T05:47:38.646Z,37.28
2023-01-28T05:48:10.723Z,33.28
2023-01-28T05:48:43.159Z,34.65
2023-01-28T05:49:16.689Z,34.13
2023-01-28T05:49:50.559Z,36.78
2023-01-28T05:50:23.437Z,35.88
2023-01-28T05:51:08.272Z,30.98
2023-01-28T05:51:40.990Z,36.10
2023-01-28T05:52:13.655Z,39.97
2023-01-28T05:52:45.979Z,33.92
2023-01-28T05:53:19.257Z,36.53
2023-01-28T05:53:51.779Z,33.45
2023-01-28T05:54:23.677Z,35.85
2023-01-28T05:54:55.660Z,37.10
2023-01-28T05:55:27.945Z,39.83
2023-01-28T05:55:59.877Z,33.30
2023-01-28T05:56:33.827Z,34.42
2023-01-28T05:57:05.846Z,38.05
2023-01-28T05:57:38.653Z,35.72
2023-01-28T05:58:11.832Z,34.58
2023-01-28T05:58:43.758Z,36.88
2023-01-28T05:59:16.831Z,33.03
2023-01-28T05:59:48.922Z,37.42
2023-01-28T06:00:21.897Z,40.67
2023-01-28T06:00:56.092Z,37.55
2023-01-28T06:01:31.974Z,35.58
2023-01-28T06:02:04.348Z,43.47
2023-01-28T06:02:36.540Z,38.28
2023-01-28T06:03:09.350Z,34.17
2023-01-28T06:03:41.582Z,37.83
2023-01-28T06:04:13.645Z,36.80
2023-01-28T06:04:45.636Z,38.53
2023-01-28T06:05:17.632Z,35.88
2023-01-28T06:05:49.570Z,39.25
2023-01-28T06:06:21.867Z,36.67
2023-01-28T06:06:53.729Z,34.40
2023-01-28T06:07:25.683Z,37.92
2023-01-28T06:07:57.598Z,39.67
2023-01-28T06:08:29.627Z,36.65
2023-01-28T06:09:01.635Z,35.58
2023-01-28T06:09:34.684Z,35.50
2023-01-28T06:10:07.454Z,34.28
2023-01-28T06:10:39.461Z,37.92
2023-01-28T06:11:11.518Z,36.28
2023-01-28T06:11:45.651Z,37.47
2023-01-28T06:12:18.694Z,32.92
2023-01-28T06:12:51.558Z,36.90
2023-01-28T06:13:24.416Z,46.63
2023-01-28T06:13:56.923Z,38.22
2023-01-28T06:14:29.070Z,40.30
2023-01-28T06:15:08.201Z,38.95
2023-01-28T06:15:40.458Z,40.35
2023-01-28T06:16:13.723Z,34.95
2023-01-28T06:16:46.529Z,38.80
2023-01-28T06:17:18.691Z,39.45
2023-01-28T06:17:50.774Z,37.40
2023-01-28T06:18:24.697Z,38.47
2023-01-28T06:18:56.820Z,38.85
2023-01-28T06:19:28.728Z,36.88
2023-01-28T06:20:00.691Z,38.75
2023-01-28T06:20:33.681Z,35.63
2023-01-28T06:21:05.835Z,36.83
2023-01-28T06:21:37.765Z,37.63
2023-01-28T06:22:10.653Z,35.42
2023-01-28T06:22:43.122Z,38.92
2023-01-28T06:23:15.480Z,36.63
2023-01-28T06:23:47.647Z,36.95
2023-01-28T06:24:19.807Z,42.85
2023-01-28T06:24:51.733Z,39.92
2023-01-28T06:25:23.613Z,35.25
2023-01-28T06:25:58.620Z,33.38
2023-01-28T06:26:30.694Z,38.92
2023-01-28T06:27:02.692Z,32.90
2023-01-28T06:27:34.930Z,38.83
2023-01-28T06:28:06.938Z,35.92
2023-01-28T06:28:38.819Z,33.97
2023-01-28T06:29:10.810Z,38.67
2023-01-28T06:29:42.743Z,37.47
2023-01-28T06:30:15.073Z,36.40
2023-01-28T06:30:51.127Z,39.13
2023-01-28T06:31:23.067Z,38.30
2023-01-28T06:31:55.040Z,37.45
2023-01-28T06:32:27.235Z,37.35
2023-01-28T06:32:59.738Z,34.38
2023-01-28T06:33:32.500Z,37.78
2023-01-28T06:34:04.793Z,35.70
2023-01-28T06:34:36.680Z,36.17
2023-01-28T06:35:08.969Z,41.08
2023-01-28T06:35:40.939Z,36.20
2023-01-28T06:36:12.867Z,33.50
2023-01-28T06:36:48.017Z,38.83
2023-01-28T06:37:20.012Z,35.22
2023-01-28T06:37:53.343Z,32.72
2023-01-28T06:38:25.533Z,36.28
2023-01-28T06:38:57.628Z,35.08
2023-01-28T06:39:31.904Z,38.40
2023-01-28T06:40:04.507Z,33.75
2023-01-28T06:40:37.269Z,37.78
2023-01-28T06:41:09.175Z,33.42
2023-01-28T06:41:41.064Z,33.13
2023-01-28T06:42:12.986Z,35.45
2023-01-28T06:42:45.258Z,37.17
2023-01-28T06:43:17.169Z,35.22
2023-01-28T06:43:49.494Z,39.35
2023-01-28T06:44:23.544Z,33.40
2023-01-28T06:44:55.413Z,34.47
2023-01-28T06:45:27.439Z,40.42
2023-01-28T06:45:59.714Z,37.78
2023-01-28T06:46:31.678Z,33.05
2023-01-28T06:47:03.777Z,39.55
2023-01-28T06:47:35.670Z,31.50
2023-01-28T06:48:08.889Z,38.90
2023-01-28T06:48:40.888Z,37.00
2023-01-28T06:49:13.067Z,34.63
2023-01-28T06:49:44.977Z,36.15
2023-01-28T06:50:17.494Z,37.90
2023-01-28T06:50:49.955Z,36.50
2023-01-28T06:51:21.849Z,34.85
2023-01-28T06:51:53.926Z,35.45
2023-01-28T06:52:25.859Z,40.08
2023-01-28T06:52:57.747Z,38.45
2023-01-28T06:53:29.979Z,36.05
2023-01-28T06:54:01.912Z,41.15
2023-01-28T06:54:34.101Z,39.45
2023-01-28T06:55:06.310Z,37.10
2023-01-28T06:55:38.173Z,37.30
2023-01-28T06:56:10.159Z,37.65
2023-01-28T06:56:42.302Z,36.78
2023-01-28T06:57:14.198Z,39.17
2023-01-28T06:57:46.032Z,36.65
2023-01-28T06:58:17.967Z,43.13
2023-01-28T06:58:49.981Z,43.35
2023-01-28T06:59:21.870Z,38.50
2023-01-28T06:59:54.125Z,37.30
2023-01-28T07:00:26.097Z,41.17
2023-01-28T07:00:58.040Z,40.17
2023-01-28T07:01:29.930Z,43.42
2023-01-28T07:02:01.870Z,38.10
2023-01-28T07:02:34.080Z,42.47
2023-01-28T07:03:06.795Z,41.95
2023-01-28T07:03:38.759Z,38.80
2023-01-28T07:04:10.907Z,40.10
2023-01-28T07:04:42.859Z,37.63
2023-01-28T07:05:15.056Z,38.55
2023-01-28T07:05:47.003Z,43.38
2023-01-28T07:06:18.949Z,34.33
2023-01-28T07:06:51.136Z,39.95
2023-01-28T07:07:23.026Z,39.80
2023-01-28T07:07:54.926Z,35.72
2023-01-28T07:08:26.851Z,39.80
2023-01-28T07:08:58.807Z,38.38
2023-01-28T07:09:30.662Z,42.13
2023-01-28T07:10:02.993Z,41.17
2023-01-28T07:10:35.299Z,39.33
2023-01-28T07:11:08.044Z,38.22
2023-01-28T07:11:39.931Z,41.35
2023-01-28T07:12:11.782Z,36.85
2023-01-28T07:12:45.666Z,43.50
2023-01-28T07:13:17.813Z,37.67
2023-01-28T07:13:49.749Z,39.97
2023-01-28T07:14:21.667Z,41.67
2023-01-28T07:14:53.533Z,40.80
2023-01-28T07:15:25.494Z,35.60
2023-01-28T07:15:57.740Z,38.92
2023-01-28T07:16:29.649Z,40.47
2023-01-28T07:17:01.545Z,38.55
2023-01-28T07:17:33.523Z,36.20
2023-01-28T07:18:05.565Z,39.15
2023-01-28T07:18:37.454Z,40.03
2023-01-28T07:19:09.473Z,41.08
2023-01-28T07:19:41.555Z,40.92
2023-01-28T07:20:15.805Z,37.33
2023-01-28T07:20:47.992Z,40.53
2023-01-28T07:21:20.299Z,43.40
2023-01-28T07:21:52.132Z,38.97
2023-01-28T07:22:24.045Z,37.95
2023-01-28T07:22:55.941Z,39.92
2023-01-28T07:23:29.121Z,40.00
2023-01-28T07:24:01.182Z,40.63
2023-01-28T07:24:33.865Z,38.45
2023-01-28T07:25:06.801Z,39.90
2023-01-28T07:25:38.696Z,36.80
2023-01-28T07:26:10.562Z,41.30
2023-01-28T07:26:42.758Z,43.70
2023-01-28T07:27:15.453Z,39.55
2023-01-28T07:27:52.499Z,37.88
2023-01-28T07:28:24.463Z,35.78
2023-01-28T07:28:56.488Z,40.53
2023-01-28T07:29:28.377Z,37.97
2023-01-28T07:30:00.263Z,45.12
2023-01-28T07:30:32.118Z,41.00
2023-01-28T07:31:04.163Z,43.25
2023-01-28T07:31:38.560Z,41.05
2023-01-28T07:32:10.961Z,45.10
2023-01-28T07:32:42.930Z,40.30
2023-01-28T07:33:14.792Z,38.38
2023-01-28T07:33:46.717Z,38.92
2023-01-28T07:34:18.644Z,44.90
2023-01-28T07:34:50.531Z,43.45
2023-01-28T07:35:23.335Z,37.58
2023-01-28T07:35:55.219Z,39.28